Bula, Texas
Current Conditions -  °F | °C
As of 6:55 PM on Friday 24 Oct 2014 (Local Time) from KCVN Reporting Station
Clear Clear  
Wind Chill: 75°   Ceiling: Unl
Heat Index: 75°   Visibility: 10mi
Dew Point: 41°   Wind: 9mph
Humidity: 29%   Direction: 220°SW
Pressure: 30.17"   Gusts: NA
Location:  33.91°N, 102.64°W
Report Text: KCVN 242355Z AUTO 22008KT 10SM CLR 24/05 A3017 RMK AO1 10290 20240 402900080 54000
Loading
Personal Weather Stations






























Interactive Weather Map
Tropical Storm Tracking
New forecast layout! Learn more

10-Day Weather Forecast

Advertisements
Track Severe Weather on mobile